Time;durP1;ratioP1;P1;durP2;ratioP2;P2;SDS_P1;SDS_P2;PMS_P1;PMS_P2;Temp;Humidity;BMP_temperature;BMP_pressure;BME280_temperature;BME280_humidity;BME280_pressure;Samples;Min_cycle;Max_cycle;Signal;HPM_P1;HPM_P2
2021/01/18 00:00:06;;;;;;;53.48;23.05;;;;;;;-13.75;68.97;99920.51;1755462;82;21275;-79
2021/01/18 00:03:12;;;;;;;54.00;21.45;;;;;;;-13.75;69.15;99916.56;1754849;82;21204;-79
2021/01/18 00:06:26;;;;;;;56.55;22.75;;;;;;;-13.73;69.23;99913.02;1755520;82;21291;-80
2021/01/18 00:09:31;;;;;;;56.92;22.67;;;;;;;-13.75;69.07;99912.16;1755700;82;21283;-80
2021/01/18 00:12:38;;;;;;;67.62;26.95;;;;;;;-13.75;69.11;99901.64;1754388;81;21181;-80
2021/01/18 00:15:44;;;;;;;68.80;27.40;;;;;;;-13.74;69.10;99903.37;1754457;82;21758;-80
2021/01/18 00:18:51;;;;;;;56.33;22.10;;;;;;;-13.76;68.98;99895.98;1754475;82;21295;-80
2021/01/18 00:21:57;;;;;;;53.30;21.00;;;;;;;-13.76;68.97;99899.92;1755314;82;21208;-80
2021/01/18 00:25:02;;;;;;;56.02;23.22;;;;;;;-13.77;68.87;99907.86;1755731;82;21208;-80
2021/01/18 00:28:07;;;;;;;59.53;24.52;;;;;;;-13.80;68.71;99924.55;1755239;82;21733;-80
2021/01/18 00:31:13;;;;;;;50.73;21.90;;;;;;;-13.84;68.54;99922.89;1756053;82;21209;-79
2021/01/18 00:34:19;;;;;;;55.10;22.93;;;;;;;-13.84;68.35;99928.14;1755001;82;21172;-80
2021/01/18 00:37:26;;;;;;;50.20;22.62;;;;;;;-13.82;68.26;99928.14;1755960;82;21288;-78
2021/01/18 00:40:33;;;;;;;60.05;24.35;;;;;;;-13.82;67.87;99946.09;1755713;82;21892;-79
2021/01/18 00:43:39;;;;;;;47.77;22.23;;;;;;;-13.83;67.57;99940.84;1714021;82;21211;-79
2021/01/18 00:46:44;;;;;;;62.90;25.45;;;;;;;-13.86;67.43;99945.73;1698043;84;21193;-79
2021/01/18 00:49:50;;;;;;;61.60;21.95;;;;;;;-13.86;66.95;99938.30;1713479;84;21216;-79
2021/01/18 00:52:57;;;;;;;51.75;21.30;;;;;;;-13.90;66.55;99936.63;1698266;84;21316;-80
2021/01/18 00:56:02;;;;;;;48.17;21.42;;;;;;;-13.93;66.28;99933.60;1715067;84;21120;-79
2021/01/18 00:59:09;;;;;;;49.93;20.40;;;;;;;-13.88;66.09;99935.68;1698151;84;21190;-80
2021/01/18 01:02:19;;;;;;;36.63;16.63;;;;;;;-13.84;65.84;99929.91;1714880;82;21733;-79
2021/01/18 01:05:29;;;;;;;55.45;21.52;;;;;;;-13.83;65.36;99925.96;1698201;84;21945;-79
2021/01/18 01:08:35;;;;;;;44.60;19.87;;;;;;;-13.82;65.08;99925.05;1714939;82;21216;-79
2021/01/18 01:11:41;;;;;;;60.43;24.27;;;;;;;-13.79;64.83;99928.91;1698257;84;21197;-80
2021/01/18 01:14:48;;;;;;;49.77;21.15;;;;;;;-13.74;64.75;99936.24;1715382;84;21164;-79
2021/01/18 01:17:55;;;;;;;48.35;20.72;;;;;;;-13.72;64.45;99930.97;1698499;84;21861;-79
2021/01/18 01:21:01;;;;;;;56.50;22.73;;;;;;;-13.70;64.19;99933.10;1713982;84;21291;-79
2021/01/18 01:24:07;;;;;;;61.90;24.40;;;;;;;-13.67;64.09;99923.84;1697611;84;21340;-79
2021/01/18 01:27:14;;;;;;;41.80;19.75;;;;;;;-13.68;63.82;99938.77;1714000;82;21176;-80
2021/01/18 01:30:24;;;;;;;45.95;18.70;;;;;;;-13.62;63.74;99933.80;1698367;84;21328;-80
2021/01/18 01:33:30;;;;;;;53.17;24.15;;;;;;;-13.61;63.67;99936.84;1713305;82;21185;-80
2021/01/18 01:36:35;;;;;;;50.92;21.02;;;;;;;-13.60;63.36;99935.08;1698365;84;21285;-80
2021/01/18 01:39:41;;;;;;;48.13;21.50;;;;;;;-13.59;63.26;99939.46;1713105;84;21864;-80
2021/01/18 01:42:47;;;;;;;51.85;20.77;;;;;;;-13.59;62.99;99949.53;1697321;84;21348;-80
2021/01/18 01:45:52;;;;;;;51.85;20.75;;;;;;;-13.67;62.74;99948.83;1712751;84;21168;-80
2021/01/18 01:48:58;;;;;;;49.27;20.15;;;;;;;-13.75;63.00;99943.72;1697401;84;21308;-80
2021/01/18 01:52:04;;;;;;;53.75;23.42;;;;;;;-13.74;63.24;99942.81;1714321;82;21729;-80
2021/01/18 01:55:13;;;;;;;50.17;21.48;;;;;;;-13.70;63.13;99948.88;1697672;84;21961;-80
2021/01/18 01:58:19;;;;;;;29.87;14.05;;;;;;;-13.68;62.69;99952.36;1694222;84;21330;-80
2021/01/18 02:01:24;;;;;;;41.85;20.57;;;;;;;-13.70;62.51;99959.41;1714537;84;21327;-80
2021/01/18 02:04:31;;;;;;;43.40;17.85;;;;;;;-13.76;62.59;99966.98;1698785;84;21902;-80
2021/01/18 02:07:38;;;;;;;40.73;19.45;;;;;;;-13.74;62.60;99974.38;1714539;82;21314;-80
2021/01/18 02:10:44;;;;;;;48.75;20.08;;;;;;;-13.73;62.53;99969.56;1697675;84;21364;-80
2021/01/18 02:14:15;;;;;;;47.60;18.75;;;;;;;-13.76;62.47;99959.55;1713546;82;21180;-80
2021/01/18 02:17:44;;;;;;;43.52;19.30;;;;;;;-13.78;62.44;99957.38;1698834;84;21209;-79
2021/01/18 02:21:20;;;;;;;44.67;19.87;;;;;;;-13.82;62.38;99965.81;1714752;84;21262;-80
2021/01/18 02:25:01;;;;;;;68.42;22.67;;;;;;;-13.77;62.58;99963.08;1697892;84;21320;-81
2021/01/18 02:28:42;;;;;;;60.85;21.87;;;;;;;-13.70;62.53;99967.30;1714237;82;21908;-80
2021/01/18 02:32:29;;;;;;;54.90;20.55;;;;;;;-13.63;62.44;99973.30;1699248;84;21230;-81
2021/01/18 02:36:04;;;;;;;53.38;19.00;;;;;;;-13.67;62.31;99977.30;1714903;84;21275;-80
2021/01/18 02:39:34;;;;;;;52.75;18.82;;;;;;;-13.66;62.35;99981.66;1697747;84;21339;-79
2021/01/18 02:42:55;;;;;;;46.60;17.67;;;;;;;-13.62;62.30;99995.63;1714582;82;21346;-79
2021/01/18 02:45:59;;;;;;;34.83;15.13;;;;;;;-13.60;62.08;99989.00;1693754;84;21296;-80
2021/01/18 02:49:06;;;;;;;45.35;20.25;;;;;;;-13.65;62.09;99982.52;1715961;82;21526;-80
2021/01/18 02:52:20;;;;;;;38.78;17.12;;;;;;;-13.62;62.20;99981.61;1738723;82;21310;-80
2021/01/18 02:55:26;;;;;;;48.17;20.62;;;;;;;-13.62;62.12;99986.86;1752574;82;21295;-80
2021/01/18 02:58:34;;;;;;;46.08;19.00;;;;;;;-13.65;61.96;99987.78;1752329;82;21307;-80
2021/01/18 03:02:18;;;;;;;45.23;19.17;;;;;;;-13.71;62.02;99995.81;1753155;82;21793;-80
2021/01/18 03:05:52;;;;;;;44.53;20.55;;;;;;;-13.73;62.23;100002.44;1753288;82;21276;-80
2021/01/18 03:09:02;;;;;;;44.05;19.70;;;;;;;-13.72;62.14;100006.79;1751820;82;21765;-80
2021/01/18 03:12:12;;;;;;;43.02;18.60;;;;;;;-13.73;62.01;100009.46;1752106;82;21275;-80
2021/01/18 03:15:20;;;;;;;45.52;17.67;;;;;;;-13.78;62.11;100005.61;1750926;82;21764;-80
2021/01/18 03:18:27;;;;;;;46.85;19.35;;;;;;;-13.78;62.20;100014.81;1750615;82;21176;-80
2021/01/18 03:21:34;;;;;;;43.42;18.95;;;;;;;-13.77;62.20;100019.17;1752099;82;21838;-80
2021/01/18 03:24:40;;;;;;;45.78;19.00;;;;;;;-13.77;62.31;100007.79;1751330;82;21307;-79
2021/01/18 03:27:58;;;;;;;44.75;17.50;;;;;;;-13.74;62.39;100007.25;1750791;82;21307;-80
2021/01/18 03:31:04;;;;;;;44.30;18.77;;;;;;;-13.70;62.50;100004.98;1752211;82;21295;-80
2021/01/18 03:34:10;;;;;;;44.83;20.00;;;;;;;-13.62;62.57;100006.59;1751751;82;21610;-80
2021/01/18 03:37:16;;;;;;;50.52;20.02;;;;;;;-13.56;62.38;100001.19;1752263;82;21268;-80
2021/01/18 03:40:22;;;;;;;47.88;20.10;;;;;;;-13.51;62.22;100005.45;1752482;82;21165;-80
2021/01/18 03:43:29;;;;;;;43.78;20.82;;;;;;;-13.53;62.15;99999.37;1751572;82;21900;-80
2021/01/18 03:46:34;;;;;;;49.15;21.97;;;;;;;-13.52;62.02;99996.28;1747536;82;21709;-80
2021/01/18 03:49:39;;;;;;;34.40;16.52;;;;;;;-13.55;62.14;99987.13;1710792;84;21330;-80
2021/01/18 03:52:46;;;;;;;45.92;21.12;;;;;;;-13.55;62.21;99981.88;1711731;84;21209;-79
2021/01/18 03:55:51;;;;;;;53.70;21.82;;;;;;;-13.61;62.23;99979.38;1685484;85;21324;-80
2021/01/18 03:58:57;;;;;;;49.95;21.27;;;;;;;-13.62;62.44;99979.84;1711676;82;21303;-79
2021/01/18 04:02:04;;;;;;;44.35;20.72;;;;;;;-13.56;62.59;99990.22;1710771;84;21276;-79
2021/01/18 04:05:10;;;;;;;49.77;23.00;;;;;;;-13.52;62.57;99999.77;1685806;85;21280;-79
2021/01/18 04:08:15;;;;;;;48.40;19.90;;;;;;;-13.45;62.67;100017.63;1711495;82;21327;-79
2021/01/18 04:11:21;;;;;;;47.33;20.23;;;;;;;-13.36;62.30;100020.02;1711901;84;21331;-80
2021/01/18 04:14:27;;;;;;;56.92;21.33;;;;;;;-13.38;62.11;100019.20;1686805;85;21861;-80
2021/01/18 04:17:33;;;;;;;53.80;21.17;;;;;;;-13.36;62.17;100017.84;1711006;82;21307;-80
2021/01/18 04:20:40;;;;;;;51.73;21.80;;;;;;;-13.32;62.15;100017.74;1710990;84;21731;-80
2021/01/18 04:23:47;;;;;;;53.45;23.40;;;;;;;-13.26;62.10;100028.61;1686113;85;21344;-80
2021/01/18 04:26:52;;;;;;;55.10;22.30;;;;;;;-13.24;61.76;100025.03;1712019;84;21310;-80
2021/01/18 04:29:57;;;;;;;55.75;23.57;;;;;;;-13.26;61.91;100038.69;1712422;84;21279;-80
2021/01/18 04:33:16;;;;;;;56.45;23.65;;;;;;;-13.27;62.07;100047.45;1686558;85;21221;-80
2021/01/18 04:36:22;;;;;;;59.05;22.95;;;;;;;-13.33;61.91;100035.76;1711270;84;21308;-80
2021/01/18 04:39:27;;;;;;;53.50;21.97;;;;;;;-13.44;61.94;100032.51;1712530;84;21326;-80
2021/01/18 04:42:34;;;;;;;51.33;23.25;;;;;;;-13.57;62.24;100034.53;1686486;85;21184;-80
2021/01/18 04:45:40;;;;;;;54.65;25.43;;;;;;;-13.63;62.69;100053.53;1712965;83;21773;-80
2021/01/18 04:48:46;;;;;;;59.90;26.40;;;;;;;-13.70;62.72;100058.89;1698247;84;21183;-80
2021/01/18 04:52:01;;;;;;;53.95;24.25;;;;;;;-13.78;62.94;100066.52;1713426;84;21338;-80
2021/01/18 04:55:07;;;;;;;56.10;23.80;;;;;;;-13.83;63.15;100056.55;1698826;84;21829;-80
2021/01/18 04:58:19;;;;;;;53.48;23.57;;;;;;;-13.84;63.28;100049.10;1713739;82;21176;-80
2021/01/18 05:01:24;;;;;;;43.70;19.17;;;;;;;-13.88;63.51;100042.17;1696918;84;21388;-79
2021/01/18 05:04:35;;;;;;;56.42;22.87;;;;;;;-13.88;63.65;100050.06;1713790;84;21303;-80
2021/01/18 05:07:44;;;;;;;57.60;25.40;;;;;;;-13.87;63.81;100058.39;1696883;84;21786;-80
2021/01/18 05:10:49;;;;;;;;;;;;;;;-13.81;63.78;100062.20;1716534;84;21931;-80
2021/01/18 05:13:54;;;;;;;71.70;28.15;;;;;;;-13.76;63.75;100063.42;1696882;84;20176;-80
2021/01/18 05:17:02;;;;;;;62.55;25.80;;;;;;;-13.75;63.55;100065.16;1712698;82;21299;-80
2021/01/18 05:20:09;;;;;;;50.33;21.23;;;;;;;-13.74;63.65;100067.74;1697000;84;21774;-80
2021/01/18 05:23:15;;;;;;;55.85;23.90;;;;;;;-13.66;63.73;100076.80;1713281;82;21212;-80
2021/01/18 05:26:32;;;;;;;49.08;21.27;;;;;;;-13.62;63.36;100066.64;1696160;84;21222;-79
2021/01/18 05:29:40;;;;;;;60.05;26.02;;;;;;;-13.60;63.34;100060.02;1684009;85;21185;-79
2021/01/18 05:32:45;;;;;;;57.95;23.30;;;;;;;-13.53;63.37;100072.17;1696804;84;21316;-79
2021/01/18 05:35:58;;;;;;;63.48;26.40;;;;;;;-13.45;63.30;100063.67;1683266;85;21515;-79
2021/01/18 05:39:05;;;;;;;52.45;22.15;;;;;;;-13.37;63.17;100070.93;1696023;84;21332;-80
2021/01/18 05:42:12;;;;;;;55.17;23.07;;;;;;;-13.29;63.11;100062.42;1684280;85;21315;-79
2021/01/18 05:45:19;;;;;;;55.38;25.02;;;;;;;-13.25;62.96;100073.77;1677587;84;21237;-79
2021/01/18 05:48:34;;;;;;;60.73;27.00;;;;;;;-13.23;62.93;100073.27;1682883;85;21202;-79
2021/01/18 05:51:41;;;;;;;50.48;23.42;;;;;;;-13.16;62.75;100063.00;1696076;84;21352;-79
2021/01/18 05:54:47;;;;;;;67.22;27.65;;;;;;;-13.13;62.50;100061.59;1704264;82;21362;-80
2021/01/18 05:58:01;;;;;;;57.25;24.95;;;;;;;-13.06;62.47;100068.47;1705340;83;21387;-80
2021/01/18 06:01:06;;;;;;;65.57;26.27;;;;;;;-12.96;62.46;100075.70;1720592;83;21295;-80
2021/01/18 06:04:21;;;;;;;67.60;27.52;;;;;;;-12.89;62.07;100078.17;1728830;82;21853;-80
2021/01/18 06:07:28;;;;;;;56.92;27.27;;;;;;;-12.84;61.78;100085.08;1753038;82;21196;-81
2021/01/18 06:10:41;;;;;;;55.75;25.88;;;;;;;-12.80;61.84;100091.55;1720310;82;21314;-80
2021/01/18 06:13:48;;;;;;;61.58;26.52;;;;;;;-12.68;61.90;100083.83;1714749;82;21331;-81
2021/01/18 06:16:55;;;;;;;52.25;23.02;;;;;;;-12.59;61.60;100094.15;1726056;82;21814;-80
2021/01/18 06:20:02;;;;;;;60.50;24.63;;;;;;;-12.48;61.44;100101.78;1704149;82;21172;-80
2021/01/18 06:23:09;;;;;;;55.63;25.12;;;;;;;-12.44;60.85;100100.81;1718477;81;22028;-80
2021/01/18 06:26:15;;;;;;;53.02;23.52;;;;;;;-12.43;60.78;100103.39;1718335;82;21875;-80
2021/01/18 06:29:49;;;;;;;54.55;24.92;;;;;;;-12.37;60.50;100103.72;1711447;82;21277;-81
2021/01/18 06:32:56;;;;;;;49.90;23.83;;;;;;;-12.38;60.07;100100.19;1718349;82;21291;-80
2021/01/18 06:36:01;;;;;;;67.10;28.57;;;;;;;-12.46;59.94;100087.68;1699983;82;21221;-79
2021/01/18 06:39:11;;;;;;;62.60;26.65;;;;;;;-12.55;60.00;100085.73;1687173;82;21243;-79
2021/01/18 06:42:16;;;;;;;54.48;26.07;;;;;;;-12.69;60.08;100081.65;1706680;82;21280;-80
2021/01/18 06:45:30;;;;;;;57.17;25.40;;;;;;;-12.80;60.40;100077.06;1723000;81;21322;-80
2021/01/18 06:48:36;;;;;;;61.05;26.45;;;;;;;-12.87;60.69;100083.85;1712828;83;21821;-80
2021/01/18 06:51:43;;;;;;;56.33;27.10;;;;;;;-12.98;60.85;100090.69;1720501;82;21205;-81
2021/01/18 06:54:49;;;;;;;60.70;25.05;;;;;;;-13.08;61.04;100093.08;1705802;82;21267;-80
2021/01/18 06:58:12;;;;;;;62.23;28.52;;;;;;;-13.19;61.23;100092.88;1715693;82;21197;-80
2021/01/18 07:01:17;;;;;;;62.23;25.88;;;;;;;-13.26;61.58;100091.33;1723932;82;21276;-81
2021/01/18 07:04:23;;;;;;;67.53;28.80;;;;;;;-13.27;61.75;100088.25;1724160;81;21887;-81
2021/01/18 07:07:34;;;;;;;60.08;26.42;;;;;;;-13.30;61.89;100094.92;1708237;83;21277;-81
2021/01/18 07:10:39;;;;;;;63.20;27.75;;;;;;;-13.28;62.12;100110.66;1706894;83;21303;-80
2021/01/18 07:13:39;;;;;;;65.28;29.95;;;;;;;-13.22;62.22;100125.91;1725788;82;21636;-81
2021/01/18 07:16:47;;;;;;;63.15;28.98;;;;;;;-13.14;62.22;100125.69;1703645;83;21306;-81
2021/01/18 07:19:55;;;;;;;69.00;29.05;;;;;;;-13.10;61.98;100109.38;1722055;81;21547;-78
2021/01/18 07:23:18;;;;;;;61.88;28.35;;;;;;;-13.13;61.58;100115.56;1705149;82;21711;-81
2021/01/18 07:26:30;;;;;;;64.17;27.25;;;;;;;-13.23;61.71;100113.61;1707043;82;21334;-82
2021/01/18 07:29:37;;;;;;;58.85;26.65;;;;;;;-13.28;62.35;100108.90;1703973;82;21942;-82
2021/01/18 07:32:42;;;;;;;61.85;25.82;;;;;;;-13.31;62.37;100124.78;1698042;82;21797;-82
2021/01/18 07:35:48;;;;;;;75.37;31.33;;;;;;;-13.32;62.38;100124.78;1708901;82;21291;-82
2021/01/18 07:38:54;;;;;;;54.38;22.90;;;;;;;-13.36;62.53;100125.29;1711886;81;21810;-83
2021/01/18 07:42:00;;;;;;;68.10;31.02;;;;;;;-13.37;62.45;100122.25;1716726;83;21279;-82
2021/01/18 07:45:24;;;;;;;69.32;30.90;;;;;;;-13.40;62.52;100128.91;1711416;82;21732;-81
2021/01/18 07:48:35;;;;;;;66.20;29.98;;;;;;;-13.45;62.48;100126.83;1711446;83;21276;-83
2021/01/18 07:51:41;;;;;;;72.12;32.67;;;;;;;-13.53;62.54;100124.79;1705776;83;21158;-82
2021/01/18 07:54:46;;;;;;;80.55;34.67;;;;;;;-13.59;62.79;100126.23;1709476;82;21252;-81
2021/01/18 07:57:52;;;;;;;75.20;32.98;;;;;;;-13.64;62.74;100123.69;1708275;82;21334;-81
2021/01/18 08:01:00;;;;;;;90.15;35.88;;;;;;;-13.66;62.44;100128.09;1706442;82;21280;-82
2021/01/18 08:04:24;;;;;;;92.82;36.23;;;;;;;-13.68;62.48;100127.27;1706239;83;21307;-81
2021/01/18 08:07:29;;;;;;;108.57;41.88;;;;;;;-13.66;62.73;100137.30;1710922;82;21300;-82
2021/01/18 08:10:56;;;;;;;132.72;50.40;;;;;;;-13.59;63.01;100136.76;1705601;82;21308;-82
2021/01/18 08:14:05;;;;;;;129.23;51.80;;;;;;;-13.50;62.81;100138.76;1694931;82;21292;-82
2021/01/18 08:17:10;;;;;;;133.33;55.70;;;;;;;-13.44;62.66;100135.99;1705854;82;21308;-81
2021/01/18 08:20:23;;;;;;;158.05;62.85;;;;;;;-13.34;62.60;100138.44;1689146;82;21173;-82
2021/01/18 08:23:52;;;;;;;162.65;64.45;;;;;;;-13.29;62.50;100129.55;1706928;83;21181;-82
2021/01/18 08:27:16;;;;;;;193.13;75.65;;;;;;;-13.26;62.35;100129.49;1685214;83;21185;-81
2021/01/18 08:30:41;;;;;;;171.20;74.75;;;;;;;-13.22;62.39;100143.02;1707588;83;21751;-82
2021/01/18 08:33:45;;;;;;;180.22;75.08;;;;;;;-13.20;62.38;100146.43;1673049;85;21138;-81
2021/01/18 08:36:55;;;;;;;167.62;73.35;;;;;;;-13.21;62.06;100136.80;1648811;84;21300;-81
2021/01/18 08:40:21;;;;;;;168.35;69.72;;;;;;;-13.23;62.09;100132.49;1673407;84;21190;-82
2021/01/18 08:43:28;;;;;;;173.35;71.33;;;;;;;-13.28;62.07;100114.16;1674697;84;21331;-81
2021/01/18 08:46:44;;;;;;;183.40;70.62;;;;;;;-13.29;62.14;100112.89;1673465;84;21296;-81
2021/01/18 08:49:50;;;;;;;206.20;80.57;;;;;;;-13.34;61.98;100116.06;1678318;82;21267;-81
2021/01/18 08:53:06;;;;;;;174.18;69.60;;;;;;;-13.36;62.26;100121.80;1705573;83;21762;-81
2021/01/18 08:56:37;;;;;;;174.65;67.80;;;;;;;-13.28;62.37;100117.25;1704613;81;21339;-81
2021/01/18 08:59:42;;;;;;;163.72;62.55;;;;;;;-13.10;62.38;100120.77;1703796;83;21339;-81
2021/01/18 09:02:52;;;;;;;174.00;68.55;;;;;;;-12.83;62.36;100119.76;1701648;83;21283;-82
2021/01/18 09:06:02;;;;;;;173.47;65.45;;;;;;;-12.56;61.64;100113.85;1694395;83;21279;-80
2021/01/18 09:09:16;;;;;;;147.00;63.05;;;;;;;-12.36;60.78;100110.72;1698440;83;21920;-80
2021/01/18 09:12:24;;;;;;;155.75;60.70;;;;;;;-12.22;60.34;100112.56;1705787;81;21193;-80
2021/01/18 09:15:29;;;;;;;132.45;54.60;;;;;;;-12.08;59.91;100110.03;1705439;83;21305;-80
2021/01/18 09:18:36;;;;;;;114.57;46.90;;;;;;;-11.96;59.70;100104.41;1702293;81;21394;-80
2021/01/18 09:21:41;;;;;;;140.52;54.35;;;;;;;-11.89;59.31;100108.64;1716873;83;21201;-79
2021/01/18 09:24:50;;;;;;;124.92;50.20;;;;;;;-11.87;59.18;100110.77;1705146;83;21339;-80
2021/01/18 09:27:57;;;;;;;118.08;49.88;;;;;;;-11.79;58.98;100112.72;1712415;81;21287;-80
2021/01/18 09:31:03;;;;;;;325.57;106.80;;;;;;;-11.69;58.87;100114.66;1700214;83;21318;-80
2021/01/18 09:34:21;;;;;;;177.70;71.05;;;;;;;-11.54;58.61;100119.50;1699000;81;21301;-80
2021/01/18 09:37:28;;;;;;;144.75;59.15;;;;;;;-11.34;58.35;100113.66;1709977;81;21268;-81
2021/01/18 09:40:36;;;;;;;118.62;52.50;;;;;;;-11.08;57.85;100112.91;1703317;81;21169;-81
2021/01/18 09:43:40;;;;;;;118.95;51.53;;;;;;;-10.84;57.48;100119.22;1708799;83;21303;-80
2021/01/18 09:46:45;;;;;;;127.38;50.00;;;;;;;-10.67;57.21;100124.86;1707764;81;21883;-81
2021/01/18 09:49:51;;;;;;;114.00;48.10;;;;;;;-10.49;56.65;100126.50;1704956;83;21252;-81
2021/01/18 09:52:59;;;;;;;129.85;51.18;;;;;;;-10.39;56.24;100122.21;1727501;82;21248;-81
2021/01/18 09:56:15;;;;;;;106.60;44.18;;;;;;;-10.39;55.71;100127.50;1731537;82;21160;-82
2021/01/18 09:59:21;;;;;;;127.35;51.13;;;;;;;-10.49;55.41;100129.14;1705996;82;21305;-82
2021/01/18 10:02:27;;;;;;;111.80;48.98;;;;;;;-10.53;55.48;100130.19;1728528;82;21323;-82
2021/01/18 10:05:34;;;;;;;109.72;46.55;;;;;;;-10.54;55.61;100133.72;1724984;82;21271;-81
2021/01/18 10:08:41;;;;;;;117.67;48.73;;;;;;;-10.56;55.35;100118.77;1724415;82;21611;-82
2021/01/18 10:11:54;;;;;;;110.55;46.95;;;;;;;-10.65;54.73;100119.06;1728812;82;21169;-82
2021/01/18 10:15:00;;;;;;;105.63;47.70;;;;;;;-10.76;55.16;100109.75;1726227;82;21212;-82
2021/01/18 10:18:07;;;;;;;107.37;43.13;;;;;;;-10.89;55.33;100117.18;1728832;82;21759;-81
2021/01/18 10:21:16;;;;;;;92.37;38.53;;;;;;;-11.00;55.58;100121.94;1734606;82;21168;-81
2021/01/18 10:24:36;;;;;;;105.55;44.00;;;;;;;-11.19;56.06;100125.11;1715466;82;21151;-82
2021/01/18 10:27:41;;;;;;;88.60;39.05;;;;;;;-11.23;56.53;100117.33;1717838;81;21318;-82
2021/01/18 10:30:46;;;;;;;100.02;43.38;;;;;;;-11.19;56.73;100107.95;1717508;82;21263;-82
2021/01/18 10:33:52;;;;;;;101.53;42.55;;;;;;;-11.14;56.82;100092.83;1719566;81;22550;-82
2021/01/18 10:36:53;;;;;;;98.67;41.70;;;;;;;-11.07;56.83;100086.44;1715002;81;21841;-82
2021/01/18 10:40:00;;;;;;;93.90;41.98;;;;;;;-11.07;56.60;100078.51;1716745;82;21292;-83
2021/01/18 10:43:07;;;;;;;99.55;39.73;;;;;;;-11.18;56.65;100065.23;1698718;82;21330;-82
2021/01/18 10:46:23;;;;;;;82.82;38.13;;;;;;;-11.25;56.92;100076.42;1712970;82;21311;-82
2021/01/18 10:49:34;;;;;;;89.83;39.15;;;;;;;-11.32;57.10;100069.61;1711839;82;21265;-82
2021/01/18 10:52:45;;;;;;;88.37;38.83;;;;;;;-11.40;57.03;100068.95;1722966;82;21368;-83
2021/01/18 10:55:50;;;;;;;119.50;42.10;;;;;;;-11.53;57.57;100065.80;1706483;83;21885;-82
2021/01/18 10:59:03;;;;;;;125.25;46.85;;;;;;;-11.64;57.71;100060.84;1712122;81;21292;-82
2021/01/18 11:02:20;;;;;;;132.27;45.05;;;;;;;-11.67;58.12;100052.99;1712811;83;21817;-82
2021/01/18 11:05:26;;;;;;;126.02;44.75;;;;;;;-11.70;57.80;100039.05;1715336;83;21264;-83
2021/01/18 11:08:35;;;;;;;117.05;45.78;;;;;;;-11.77;57.96;100043.61;1714006;83;21263;-82
2021/01/18 11:11:44;;;;;;;112.92;46.45;;;;;;;-11.87;58.33;100044.81;1711928;83;21796;-82
2021/01/18 11:14:49;;;;;;;106.55;41.63;;;;;;;-11.93;58.91;100035.77;1701865;83;21282;-83
2021/01/18 11:18:01;;;;;;;108.78;43.23;;;;;;;-11.92;59.19;100055.49;1724710;82;21310;-83
2021/01/18 11:21:10;;;;;;;99.50;43.70;;;;;;;-11.91;59.15;100062.95;1705079;82;21324;-82
2021/01/18 11:24:14;;;;;;;99.83;39.00;;;;;;;-11.91;59.25;100067.77;1705482;82;21295;-83
2021/01/18 11:27:21;;;;;;;89.67;38.13;;;;;;;-11.87;59.62;100072.06;1722155;82;21454;-83
2021/01/18 11:30:27;;;;;;;72.50;32.63;;;;;;;-11.91;59.42;100076.14;1708030;82;21307;-82
2021/01/18 11:33:33;;;;;;;90.67;40.12;;;;;;;-11.97;59.41;100071.91;1703916;83;21905;-83
2021/01/18 11:36:39;;;;;;;80.03;33.53;;;;;;;-11.96;59.66;100070.13;1706440;82;21246;-82
2021/01/18 11:39:46;;;;;;;91.08;37.60;;;;;;;-11.96;59.80;100069.67;1706774;82;21275;-82
2021/01/18 11:42:51;;;;;;;86.32;35.60;;;;;;;-11.92;59.52;100071.78;1708417;82;21316;-83
2021/01/18 11:45:56;;;;;;;95.42;41.68;;;;;;;-11.91;59.82;100072.18;1707676;83;21316;-81
2021/01/18 11:49:02;;;;;;;78.47;33.95;;;;;;;-11.86;59.67;100068.96;1706760;82;21834;-81
2021/01/18 11:52:07;;;;;;;82.90;34.10;;;;;;;-11.79;59.63;100070.97;1706771;82;21556;-81
2021/01/18 11:55:15;;;;;;;99.35;40.15;;;;;;;-11.68;59.69;100073.70;1697589;83;21277;-81
2021/01/18 11:58:20;;;;;;;74.12;30.97;;;;;;;-11.55;59.37;100078.64;1694988;83;21508;-81
2021/01/18 12:01:25;;;;;;;80.55;36.35;;;;;;;-11.51;59.10;100083.80;1700162;83;21313;-80
2021/01/18 12:04:31;;;;;;;89.15;38.25;;;;;;;-11.53;58.87;100084.73;1698514;83;21296;-81
2021/01/18 12:07:36;;;;;;;89.10;36.33;;;;;;;-11.52;58.85;100079.89;1708329;82;21307;-81
2021/01/18 12:10:42;;;;;;;79.55;33.05;;;;;;;-11.51;58.80;100078.97;1706897;83;21268;-81
2021/01/18 12:13:49;;;;;;;90.75;37.30;;;;;;;-11.51;58.79;100094.81;1752308;81;21292;-81
2021/01/18 12:16:54;;;;;;;72.92;32.55;;;;;;;-11.57;58.81;100097.17;1756742;79;21276;-81
2021/01/18 12:20:01;;;;;;;69.72;28.90;;;;;;;-11.52;58.83;100103.19;1754593;79;21219;-82
2021/01/18 12:23:08;;;;;;;74.67;30.97;;;;;;;-11.53;58.56;100111.13;1758899;79;21288;-82
2021/01/18 12:26:13;;;;;;;79.87;32.73;;;;;;;-11.59;58.67;100109.08;1758080;79;21312;-82
2021/01/18 12:29:18;;;;;;;72.67;32.10;;;;;;;-11.66;58.68;100115.44;1755447;79;21280;-83
2021/01/18 12:32:22;;;;;;;69.03;29.48;;;;;;;-11.65;58.88;100125.09;1751275;81;21305;-82
2021/01/18 12:35:27;;;;;;;69.27;31.75;;;;;;;-11.64;58.71;100125.95;1755400;81;21269;-82
2021/01/18 12:38:32;;;;;;;82.08;33.15;;;;;;;-11.64;58.59;100125.48;1753314;79;21158;-82
2021/01/18 12:41:39;;;;;;;63.65;27.50;;;;;;;-11.60;58.54;100128.46;1751709;79;21276;-82
2021/01/18 12:44:43;;;;;;;59.55;24.95;;;;;;;-11.55;58.59;100132.75;1753562;81;21933;-82
2021/01/18 12:47:50;;;;;;;61.60;26.48;;;;;;;-11.57;58.59;100131.91;1751808;81;21279;-83
2021/01/18 12:50:55;;;;;;;64.33;27.30;;;;;;;-11.59;58.74;100131.50;1748468;81;21304;-82
2021/01/18 12:54:01;;;;;;;45.60;22.20;;;;;;;-11.52;58.76;100132.22;1757490;81;22012;-82
2021/01/18 12:57:07;;;;;;;51.63;22.22;;;;;;;-11.41;58.58;100126.63;1757714;79;21837;-83
2021/01/18 13:00:13;;;;;;;50.73;22.95;;;;;;;-11.40;58.30;100125.72;1752384;81;21239;-82
2021/01/18 13:03:19;;;;;;;50.08;22.35;;;;;;;-11.50;58.29;100138.77;1759297;81;21836;-82
2021/01/18 13:06:26;;;;;;;49.83;20.02;;;;;;;-11.57;58.46;100134.12;1756132;81;21266;-82
2021/01/18 13:09:31;;;;;;;40.48;18.23;;;;;;;-11.53;58.63;100142.80;1766759;81;21745;-82
2021/01/18 13:12:36;;;;;;;47.60;20.55;;;;;;;-11.63;58.43;100152.28;1757883;79;21172;-82
2021/01/18 13:15:41;;;;;;;39.20;17.77;;;;;;;-11.75;58.82;100147.81;1759250;81;21140;-82
2021/01/18 13:18:48;;;;;;;39.55;18.10;;;;;;;-11.80;59.01;100154.98;1724364;82;21262;-82
2021/01/18 13:22:01;;;;;;;39.35;16.27;;;;;;;-11.88;59.14;100157.84;1693410;82;21276;-82
2021/01/18 13:25:06;;;;;;;40.00;18.55;;;;;;;-12.04;59.36;100160.02;1714274;83;21161;-82
2021/01/18 13:28:11;;;;;;;43.23;19.70;;;;;;;-12.13;59.63;100166.84;1710966;83;21264;-81
2021/01/18 13:31:18;;;;;;;43.35;20.23;;;;;;;-12.19;59.73;100167.83;1704266;83;21791;-82
2021/01/18 13:34:25;;;;;;;40.70;17.70;;;;;;;-12.28;59.99;100161.46;1715217;83;21268;-81
2021/01/18 13:37:34;;;;;;;44.00;17.92;;;;;;;-12.31;60.02;100159.37;1707987;81;21339;-82
2021/01/18 13:40:40;;;;;;;31.23;14.65;;;;;;;-12.45;60.14;100159.70;1709497;83;21288;-82
2021/01/18 13:43:47;;;;;;;43.20;18.75;;;;;;;-12.55;60.29;100162.14;1705025;83;21271;-82
2021/01/18 13:46:54;;;;;;;43.70;19.70;;;;;;;-12.67;60.62;100167.23;1705621;83;21189;-82
2021/01/18 13:50:02;;;;;;;38.35;16.87;;;;;;;-12.68;60.87;100171.63;1700676;81;21777;-82
2021/01/18 13:53:07;;;;;;;36.85;18.05;;;;;;;-12.69;60.81;100175.17;1700918;83;21674;-82
2021/01/18 13:56:13;;;;;;;41.68;16.35;;;;;;;-12.73;60.91;100176.14;1703954;82;21229;-82
2021/01/18 13:59:19;;;;;;;37.55;16.65;;;;;;;-12.80;60.96;100178.48;1711609;83;21293;-82
2021/01/18 14:02:25;;;;;;;36.33;16.80;;;;;;;-12.92;61.03;100176.13;1712876;82;21337;-82
2021/01/18 14:05:31;;;;;;;38.25;17.42;;;;;;;-12.95;61.25;100180.13;1711411;82;21150;-82
2021/01/18 14:08:37;;;;;;;33.80;17.20;;;;;;;-13.04;61.29;100179.01;1717319;82;21168;-82